sensor_id;sensor_type;location;lat;lon;timestamp;P1;durP1;ratioP1;P2;durP2;ratioP2
69325;SDS011;56471;53.508;49.252;2023-03-12T00:00:45;2.20;;;2.00;;
69325;SDS011;56471;53.508;49.252;2023-03-12T00:03:11;1.73;;;1.63;;
69325;SDS011;56471;53.508;49.252;2023-03-12T00:05:37;2.03;;;1.83;;
69325;SDS011;56471;53.508;49.252;2023-03-12T00:08:08;3.28;;;1.60;;
69325;SDS011;56471;53.508;49.252;2023-03-12T00:10:43;2.10;;;1.85;;
69325;SDS011;56471;53.508;49.252;2023-03-12T00:13:09;2.95;;;1.70;;
69325;SDS011;56471;53.508;49.252;2023-03-12T00:15:35;1.73;;;1.52;;
69325;SDS011;56471;53.508;49.252;2023-03-12T00:18:04;1.63;;;1.52;;
69325;SDS011;56471;53.508;49.252;2023-03-12T00:20:30;2.05;;;1.50;;
69325;SDS011;56471;53.508;49.252;2023-03-12T00:22:58;1.95;;;1.52;;
69325;SDS011;56471;53.508;49.252;2023-03-12T00:25:24;1.98;;;1.58;;
69325;SDS011;56471;53.508;49.252;2023-03-12T00:27:49;2.17;;;1.67;;
69325;SDS011;56471;53.508;49.252;2023-03-12T00:30:15;2.10;;;1.60;;
69325;SDS011;56471;53.508;49.252;2023-03-12T00:32:41;1.50;;;1.40;;
69325;SDS011;56471;53.508;49.252;2023-03-12T00:35:06;1.75;;;1.40;;
69325;SDS011;56471;53.508;49.252;2023-03-12T00:37:32;1.60;;;1.50;;
69325;SDS011;56471;53.508;49.252;2023-03-12T00:40:01;1.60;;;1.50;;
69325;SDS011;56471;53.508;49.252;2023-03-12T00:42:29;1.73;;;1.60;;
69325;SDS011;56471;53.508;49.252;2023-03-12T00:44:56;1.50;;;1.40;;
69325;SDS011;56471;53.508;49.252;2023-03-12T00:47:24;1.60;;;1.50;;
69325;SDS011;56471;53.508;49.252;2023-03-12T00:49:50;1.52;;;1.40;;
69325;SDS011;56471;53.508;49.252;2023-03-12T00:52:15;1.85;;;1.50;;
69325;SDS011;56471;53.508;49.252;2023-03-12T00:54:41;1.30;;;1.20;;
69325;SDS011;56471;53.508;49.252;2023-03-12T00:57:07;2.75;;;1.40;;
69325;SDS011;56471;53.508;49.252;2023-03-12T00:59:32;1.40;;;1.30;;
69325;SDS011;56471;53.508;49.252;2023-03-12T01:01:58;2.35;;;1.40;;
69325;SDS011;56471;53.508;49.252;2023-03-12T01:04:24;1.40;;;1.30;;
69325;SDS011;56471;53.508;49.252;2023-03-12T01:06:49;3.92;;;1.50;;
69325;SDS011;56471;53.508;49.252;2023-03-12T01:09:15;1.60;;;1.48;;
69325;SDS011;56471;53.508;49.252;2023-03-12T01:11:40;1.42;;;1.33;;
69325;SDS011;56471;53.508;49.252;2023-03-12T01:14:06;1.50;;;1.40;;
69325;SDS011;56471;53.508;49.252;2023-03-12T01:16:32;1.40;;;1.30;;
69325;SDS011;56471;53.508;49.252;2023-03-12T01:18:59;1.85;;;1.50;;
69325;SDS011;56471;53.508;49.252;2023-03-12T01:21:26;1.30;;;1.20;;
69325;SDS011;56471;53.508;49.252;2023-03-12T01:23:52;1.58;;;1.30;;
69325;SDS011;56471;53.508;49.252;2023-03-12T01:26:18;1.40;;;1.30;;
69325;SDS011;56471;53.508;49.252;2023-03-12T01:28:44;1.75;;;1.50;;
69325;SDS011;56471;53.508;49.252;2023-03-12T01:31:11;2.10;;;1.30;;
69325;SDS011;56471;53.508;49.252;2023-03-12T01:33:38;1.45;;;1.35;;
69325;SDS011;56471;53.508;49.252;2023-03-12T01:36:05;7.13;;;1.50;;
69325;SDS011;56471;53.508;49.252;2023-03-12T01:38:49;1.77;;;1.40;;
69325;SDS011;56471;53.508;49.252;2023-03-12T01:41:16;1.58;;;1.48;;
69325;SDS011;56471;53.508;49.252;2023-03-12T01:43:42;1.50;;;1.40;;
69325;SDS011;56471;53.508;49.252;2023-03-12T01:51:20;1.48;;;1.38;;
69325;SDS011;56471;53.508;49.252;2023-03-12T01:53:50;1.60;;;1.50;;
69325;SDS011;56471;53.508;49.252;2023-03-12T01:56:17;1.80;;;1.50;;
69325;SDS011;56471;53.508;49.252;2023-03-12T01:58:44;1.65;;;1.55;;
69325;SDS011;56471;53.508;49.252;2023-03-12T02:01:14;2.13;;;1.70;;
69325;SDS011;56471;53.508;49.252;2023-03-12T02:03:43;1.50;;;1.40;;
69325;SDS011;56471;53.508;49.252;2023-03-12T02:06:14;1.80;;;1.50;;
69325;SDS011;56471;53.508;49.252;2023-03-12T02:08:43;1.70;;;1.50;;
69325;SDS011;56471;53.508;49.252;2023-03-12T02:11:11;2.08;;;1.50;;
69325;SDS011;56471;53.508;49.252;2023-03-12T02:13:37;2.15;;;1.90;;
69325;SDS011;56471;53.508;49.252;2023-03-12T02:16:03;1.80;;;1.60;;
69325;SDS011;56471;53.508;49.252;2023-03-12T02:18:29;1.55;;;1.45;;
69325;SDS011;56471;53.508;49.252;2023-03-12T02:21:02;1.75;;;1.60;;
69325;SDS011;56471;53.508;49.252;2023-03-12T02:26:29;1.60;;;1.50;;
69325;SDS011;56471;53.508;49.252;2023-03-12T02:28:55;1.60;;;1.50;;
69325;SDS011;56471;53.508;49.252;2023-03-12T02:31:24;1.80;;;1.52;;
69325;SDS011;56471;53.508;49.252;2023-03-12T02:33:54;1.73;;;1.63;;
69325;SDS011;56471;53.508;49.252;2023-03-12T02:36:23;1.55;;;1.45;;
69325;SDS011;56471;53.508;49.252;2023-03-12T02:38:58;2.75;;;1.60;;
69325;SDS011;56471;53.508;49.252;2023-03-12T02:41:30;1.77;;;1.67;;
69325;SDS011;56471;53.508;49.252;2023-03-12T02:44:05;2.03;;;1.83;;
69325;SDS011;56471;53.508;49.252;2023-03-12T02:46:43;2.25;;;2.00;;
69325;SDS011;56471;53.508;49.252;2023-03-12T02:49:10;1.98;;;1.80;;
69325;SDS011;56471;53.508;49.252;2023-03-12T02:51:37;1.98;;;1.67;;
69325;SDS011;56471;53.508;49.252;2023-03-12T02:54:04;2.05;;;1.85;;
69325;SDS011;56471;53.508;49.252;2023-03-12T02:56:29;2.22;;;1.70;;
69325;SDS011;56471;53.508;49.252;2023-03-12T02:58:58;2.00;;;1.80;;
69325;SDS011;56471;53.508;49.252;2023-03-12T03:01:24;2.42;;;1.95;;
69325;SDS011;56471;53.508;49.252;2023-03-12T03:03:50;1.85;;;1.70;;
69325;SDS011;56471;53.508;49.252;2023-03-12T03:06:16;2.42;;;1.98;;
69325;SDS011;56471;53.508;49.252;2023-03-12T03:08:42;2.17;;;1.80;;
69325;SDS011;56471;53.508;49.252;2023-03-12T03:11:08;2.03;;;1.83;;
69325;SDS011;56471;53.508;49.252;2023-03-12T03:13:37;2.25;;;2.03;;
69325;SDS011;56471;53.508;49.252;2023-03-12T03:16:03;2.15;;;1.92;;
69325;SDS011;56471;53.508;49.252;2023-03-12T03:18:29;2.15;;;1.80;;
69325;SDS011;56471;53.508;49.252;2023-03-12T03:20:56;2.10;;;2.00;;
69325;SDS011;56471;53.508;49.252;2023-03-12T03:23:23;2.10;;;1.80;;
69325;SDS011;56471;53.508;49.252;2023-03-12T03:25:49;2.13;;;1.90;;
69325;SDS011;56471;53.508;49.252;2023-03-12T03:28:17;2.30;;;2.08;;
69325;SDS011;56471;53.508;49.252;2023-03-12T03:30:44;2.08;;;1.88;;
69325;SDS011;56471;53.508;49.252;2023-03-12T03:33:09;2.28;;;2.00;;
69325;SDS011;56471;53.508;49.252;2023-03-12T03:35:35;2.47;;;2.03;;
69325;SDS011;56471;53.508;49.252;2023-03-12T03:38:01;2.30;;;1.90;;
69325;SDS011;56471;53.508;49.252;2023-03-12T03:40:27;2.35;;;2.15;;
69325;SDS011;56471;53.508;49.252;2023-03-12T03:42:53;2.40;;;1.92;;
69325;SDS011;56471;53.508;49.252;2023-03-12T03:45:19;2.42;;;2.05;;
69325;SDS011;56471;53.508;49.252;2023-03-12T03:47:45;2.53;;;1.90;;
69325;SDS011;56471;53.508;49.252;2023-03-12T03:50:11;2.80;;;1.95;;
69325;SDS011;56471;53.508;49.252;2023-03-12T03:52:37;2.20;;;1.90;;
69325;SDS011;56471;53.508;49.252;2023-03-12T03:55:02;2.53;;;2.00;;
69325;SDS011;56471;53.508;49.252;2023-03-12T03:57:28;2.08;;;1.90;;
69325;SDS011;56471;53.508;49.252;2023-03-12T03:59:54;2.40;;;2.10;;
69325;SDS011;56471;53.508;49.252;2023-03-12T04:02:20;2.45;;;2.20;;
69325;SDS011;56471;53.508;49.252;2023-03-12T04:04:46;2.45;;;2.20;;
69325;SDS011;56471;53.508;49.252;2023-03-12T04:07:12;2.53;;;2.10;;
69325;SDS011;56471;53.508;49.252;2023-03-12T04:09:37;3.30;;;2.00;;
69325;SDS011;56471;53.508;49.252;2023-03-12T04:12:03;2.35;;;2.00;;
69325;SDS011;56471;53.508;49.252;2023-03-12T04:14:29;2.78;;;2.08;;
69325;SDS011;56471;53.508;49.252;2023-03-12T04:16:55;2.30;;;2.10;;
69325;SDS011;56471;53.508;49.252;2023-03-12T04:19:20;2.08;;;1.88;;
69325;SDS011;56471;53.508;49.252;2023-03-12T04:21:46;4.03;;;2.10;;
69325;SDS011;56471;53.508;49.252;2023-03-12T04:24:13;2.35;;;2.10;;
69325;SDS011;56471;53.508;49.252;2023-03-12T04:26:39;3.45;;;2.20;;
69325;SDS011;56471;53.508;49.252;2023-03-12T04:29:05;2.25;;;1.98;;
69325;SDS011;56471;53.508;49.252;2023-03-12T04:31:31;2.63;;;2.22;;
69325;SDS011;56471;53.508;49.252;2023-03-12T04:33:57;2.60;;;2.20;;
69325;SDS011;56471;53.508;49.252;2023-03-12T04:36:22;3.22;;;2.17;;
69325;SDS011;56471;53.508;49.252;2023-03-12T04:38:51;2.47;;;2.28;;
69325;SDS011;56471;53.508;49.252;2023-03-12T04:41:16;2.90;;;2.28;;
69325;SDS011;56471;53.508;49.252;2023-03-12T04:43:42;2.65;;;2.10;;
69325;SDS011;56471;53.508;49.252;2023-03-12T04:46:08;4.43;;;2.20;;
69325;SDS011;56471;53.508;49.252;2023-03-12T04:48:34;2.90;;;2.30;;
69325;SDS011;56471;53.508;49.252;2023-03-12T04:51:01;2.47;;;2.10;;
69325;SDS011;56471;53.508;49.252;2023-03-12T04:53:28;2.28;;;2.05;;
69325;SDS011;56471;53.508;49.252;2023-03-12T04:55:53;3.38;;;2.35;;
69325;SDS011;56471;53.508;49.252;2023-03-12T04:58:19;3.20;;;2.22;;
69325;SDS011;56471;53.508;49.252;2023-03-12T05:00:46;2.53;;;2.20;;
69325;SDS011;56471;53.508;49.252;2023-03-12T05:03:15;2.58;;;2.22;;
69325;SDS011;56471;53.508;49.252;2023-03-12T05:05:41;2.47;;;2.28;;
69325;SDS011;56471;53.508;49.252;2023-03-12T05:08:07;2.50;;;2.20;;
69325;SDS011;56471;53.508;49.252;2023-03-12T05:10:32;2.30;;;2.10;;
69325;SDS011;56471;53.508;49.252;2023-03-12T05:12:58;2.45;;;2.20;;
69325;SDS011;56471;53.508;49.252;2023-03-12T05:15:27;2.25;;;2.05;;
69325;SDS011;56471;53.508;49.252;2023-03-12T05:17:56;2.80;;;2.20;;
69325;SDS011;56471;53.508;49.252;2023-03-12T05:20:21;2.88;;;2.20;;
69325;SDS011;56471;53.508;49.252;2023-03-12T05:22:47;2.50;;;2.20;;
69325;SDS011;56471;53.508;49.252;2023-03-12T05:25:13;2.47;;;2.20;;
69325;SDS011;56471;53.508;49.252;2023-03-12T05:27:41;2.50;;;2.10;;
69325;SDS011;56471;53.508;49.252;2023-03-12T05:30:07;2.63;;;2.10;;
69325;SDS011;56471;53.508;49.252;2023-03-12T05:32:33;2.78;;;2.28;;
69325;SDS011;56471;53.508;49.252;2023-03-12T05:34:59;2.35;;;2.15;;
69325;SDS011;56471;53.508;49.252;2023-03-12T05:37:24;3.35;;;2.20;;
69325;SDS011;56471;53.508;49.252;2023-03-12T05:39:52;2.45;;;2.20;;
69325;SDS011;56471;53.508;49.252;2023-03-12T05:42:18;2.65;;;2.25;;
69325;SDS011;56471;53.508;49.252;2023-03-12T05:44:44;2.95;;;2.50;;
69325;SDS011;56471;53.508;49.252;2023-03-12T05:47:09;3.10;;;2.60;;
69325;SDS011;56471;53.508;49.252;2023-03-12T05:49:35;2.70;;;2.25;;
69325;SDS011;56471;53.508;49.252;2023-03-12T05:52:01;2.72;;;2.30;;
69325;SDS011;56471;53.508;49.252;2023-03-12T05:54:26;3.75;;;2.50;;
69325;SDS011;56471;53.508;49.252;2023-03-12T05:56:53;3.95;;;2.78;;
69325;SDS011;56471;53.508;49.252;2023-03-12T05:59:20;3.70;;;2.63;;
69325;SDS011;56471;53.508;49.252;2023-03-12T06:01:48;3.17;;;2.50;;
69325;SDS011;56471;53.508;49.252;2023-03-12T06:04:14;4.07;;;2.58;;
69325;SDS011;56471;53.508;49.252;2023-03-12T06:06:39;3.30;;;2.60;;
69325;SDS011;56471;53.508;49.252;2023-03-12T06:09:05;3.47;;;2.80;;
69325;SDS011;56471;53.508;49.252;2023-03-12T06:11:32;3.13;;;2.55;;
69325;SDS011;56471;53.508;49.252;2023-03-12T06:13:58;3.30;;;2.60;;
69325;SDS011;56471;53.508;49.252;2023-03-12T06:16:24;3.25;;;2.80;;
69325;SDS011;56471;53.508;49.252;2023-03-12T06:18:52;4.00;;;2.85;;
69325;SDS011;56471;53.508;49.252;2023-03-12T06:21:23;3.17;;;2.88;;
69325;SDS011;56471;53.508;49.252;2023-03-12T06:23:51;4.28;;;3.20;;
69325;SDS011;56471;53.508;49.252;2023-03-12T06:26:17;4.15;;;3.00;;
69325;SDS011;56471;53.508;49.252;2023-03-12T06:28:45;5.25;;;3.40;;
69325;SDS011;56471;53.508;49.252;2023-03-12T06:31:12;5.07;;;3.17;;
69325;SDS011;56471;53.508;49.252;2023-03-12T06:33:38;4.25;;;3.30;;
69325;SDS011;56471;53.508;49.252;2023-03-12T06:36:05;4.25;;;3.30;;
69325;SDS011;56471;53.508;49.252;2023-03-12T06:38:31;4.82;;;3.40;;
69325;SDS011;56471;53.508;49.252;2023-03-12T06:41:02;3.92;;;3.25;;
69325;SDS011;56471;53.508;49.252;2023-03-12T06:43:30;4.80;;;3.47;;
69325;SDS011;56471;53.508;49.252;2023-03-12T06:45:57;7.57;;;3.67;;
69325;SDS011;56471;53.508;49.252;2023-03-12T06:48:24;4.63;;;3.90;;
69325;SDS011;56471;53.508;49.252;2023-03-12T06:50:50;5.68;;;3.60;;
69325;SDS011;56471;53.508;49.252;2023-03-12T06:53:17;6.20;;;3.90;;
69325;SDS011;56471;53.508;49.252;2023-03-12T06:55:43;5.72;;;3.80;;
69325;SDS011;56471;53.508;49.252;2023-03-12T07:01:16;5.72;;;4.10;;
69325;SDS011;56471;53.508;49.252;2023-03-12T07:03:42;5.63;;;3.90;;
69325;SDS011;56471;53.508;49.252;2023-03-12T07:06:12;5.20;;;3.83;;
69325;SDS011;56471;53.508;49.252;2023-03-12T07:08:39;5.93;;;4.03;;
69325;SDS011;56471;53.508;49.252;2023-03-12T07:11:04;6.90;;;4.57;;
69325;SDS011;56471;53.508;49.252;2023-03-12T07:13:30;6.32;;;4.30;;
69325;SDS011;56471;53.508;49.252;2023-03-12T07:15:56;5.63;;;4.20;;
69325;SDS011;56471;53.508;49.252;2023-03-12T07:18:21;8.65;;;4.65;;
69325;SDS011;56471;53.508;49.252;2023-03-12T07:20:47;6.68;;;4.18;;
69325;SDS011;56471;53.508;49.252;2023-03-12T07:23:13;6.32;;;4.05;;
69325;SDS011;56471;53.508;49.252;2023-03-12T07:25:40;7.38;;;4.72;;
69325;SDS011;56471;53.508;49.252;2023-03-12T07:28:06;6.82;;;4.47;;
69325;SDS011;56471;53.508;49.252;2023-03-12T07:30:33;6.85;;;4.80;;
69325;SDS011;56471;53.508;49.252;2023-03-12T07:32:59;5.93;;;4.43;;
69325;SDS011;56471;53.508;49.252;2023-03-12T07:35:26;6.72;;;4.47;;
69325;SDS011;56471;53.508;49.252;2023-03-12T07:37:51;6.85;;;4.70;;
69325;SDS011;56471;53.508;49.252;2023-03-12T07:40:17;6.22;;;4.20;;
69325;SDS011;56471;53.508;49.252;2023-03-12T07:42:43;6.45;;;4.60;;
69325;SDS011;56471;53.508;49.252;2023-03-12T07:45:08;7.47;;;4.53;;
69325;SDS011;56471;53.508;49.252;2023-03-12T07:47:34;7.43;;;4.97;;
69325;SDS011;56471;53.508;49.252;2023-03-12T07:50:00;7.25;;;4.95;;
69325;SDS011;56471;53.508;49.252;2023-03-12T07:52:26;7.53;;;4.88;;
69325;SDS011;56471;53.508;49.252;2023-03-12T07:54:52;7.25;;;4.95;;
69325;SDS011;56471;53.508;49.252;2023-03-12T07:57:20;6.65;;;5.05;;
69325;SDS011;56471;53.508;49.252;2023-03-12T07:59:46;6.90;;;5.00;;
69325;SDS011;56471;53.508;49.252;2023-03-12T08:02:12;7.40;;;5.05;;
69325;SDS011;56471;53.508;49.252;2023-03-12T08:04:38;7.95;;;5.10;;
69325;SDS011;56471;53.508;49.252;2023-03-12T08:07:04;8.40;;;5.30;;
69325;SDS011;56471;53.508;49.252;2023-03-12T08:09:29;8.57;;;5.40;;
69325;SDS011;56471;53.508;49.252;2023-03-12T08:11:56;7.93;;;5.30;;
69325;SDS011;56471;53.508;49.252;2023-03-12T08:14:22;7.90;;;5.40;;
69325;SDS011;56471;53.508;49.252;2023-03-12T08:16:48;7.88;;;5.18;;
69325;SDS011;56471;53.508;49.252;2023-03-12T08:19:14;8.43;;;5.40;;
69325;SDS011;56471;53.508;49.252;2023-03-12T08:21:39;6.97;;;5.15;;
69325;SDS011;56471;53.508;49.252;2023-03-12T08:24:05;8.98;;;5.40;;
69325;SDS011;56471;53.508;49.252;2023-03-12T08:26:31;8.60;;;5.38;;
69325;SDS011;56471;53.508;49.252;2023-03-12T08:28:56;9.43;;;5.50;;
69325;SDS011;56471;53.508;49.252;2023-03-12T08:31:24;7.70;;;5.57;;
69325;SDS011;56471;53.508;49.252;2023-03-12T08:33:53;10.23;;;5.53;;
69325;SDS011;56471;53.508;49.252;2023-03-12T08:36:19;8.18;;;5.18;;
69325;SDS011;56471;53.508;49.252;2023-03-12T08:38:44;7.35;;;4.97;;
69325;SDS011;56471;53.508;49.252;2023-03-12T08:41:10;9.00;;;5.60;;
69325;SDS011;56471;53.508;49.252;2023-03-12T08:43:36;7.90;;;5.18;;
69325;SDS011;56471;53.508;49.252;2023-03-12T08:46:02;7.43;;;4.80;;
69325;SDS011;56471;53.508;49.252;2023-03-12T08:48:29;9.20;;;5.35;;
69325;SDS011;56471;53.508;49.252;2023-03-12T08:50:56;7.68;;;5.20;;
69325;SDS011;56471;53.508;49.252;2023-03-12T08:53:25;8.85;;;5.20;;
69325;SDS011;56471;53.508;49.252;2023-03-12T08:55:52;6.65;;;4.65;;
69325;SDS011;56471;53.508;49.252;2023-03-12T08:58:18;8.77;;;4.80;;
69325;SDS011;56471;53.508;49.252;2023-03-12T09:00:44;7.82;;;5.70;;
69325;SDS011;56471;53.508;49.252;2023-03-12T09:03:10;8.23;;;5.38;;
69325;SDS011;56471;53.508;49.252;2023-03-12T09:05:39;7.63;;;5.13;;
69325;SDS011;56471;53.508;49.252;2023-03-12T09:08:05;7.90;;;5.50;;
69325;SDS011;56471;53.508;49.252;2023-03-12T09:10:31;7.25;;;5.20;;
69325;SDS011;56471;53.508;49.252;2023-03-12T09:12:57;9.45;;;5.53;;
69325;SDS011;56471;53.508;49.252;2023-03-12T09:15:23;8.38;;;5.05;;
69325;SDS011;56471;53.508;49.252;2023-03-12T09:17:49;8.95;;;5.28;;
69325;SDS011;56471;53.508;49.252;2023-03-12T09:20:15;9.55;;;5.50;;
69325;SDS011;56471;53.508;49.252;2023-03-12T09:22:41;7.88;;;5.32;;
69325;SDS011;56471;53.508;49.252;2023-03-12T09:25:08;10.27;;;5.47;;
69325;SDS011;56471;53.508;49.252;2023-03-12T09:27:39;8.32;;;5.47;;
69325;SDS011;56471;53.508;49.252;2023-03-12T09:30:08;8.60;;;5.35;;
69325;SDS011;56471;53.508;49.252;2023-03-12T09:32:36;8.57;;;5.20;;
69325;SDS011;56471;53.508;49.252;2023-03-12T09:35:02;8.68;;;5.70;;
69325;SDS011;56471;53.508;49.252;2023-03-12T09:37:28;8.63;;;5.50;;
69325;SDS011;56471;53.508;49.252;2023-03-12T09:39:56;7.90;;;5.18;;
69325;SDS011;56471;53.508;49.252;2023-03-12T09:42:27;10.18;;;5.68;;
69325;SDS011;56471;53.508;49.252;2023-03-12T09:45:01;9.55;;;5.00;;
69325;SDS011;56471;53.508;49.252;2023-03-12T09:47:30;8.27;;;5.30;;
69325;SDS011;56471;53.508;49.252;2023-03-12T09:50:02;8.17;;;5.23;;
69325;SDS011;56471;53.508;49.252;2023-03-12T09:52:41;9.38;;;5.65;;
69325;SDS011;56471;53.508;49.252;2023-03-12T09:55:19;8.27;;;5.30;;
69325;SDS011;56471;53.508;49.252;2023-03-12T09:57:46;9.45;;;5.75;;
69325;SDS011;56471;53.508;49.252;2023-03-12T10:00:16;9.55;;;5.72;;
69325;SDS011;56471;53.508;49.252;2023-03-12T10:05:42;9.55;;;5.80;;
69325;SDS011;56471;53.508;49.252;2023-03-12T10:08:17;8.88;;;5.90;;
69325;SDS011;56471;53.508;49.252;2023-03-12T10:24:59;9.45;;;5.72;;
69325;SDS011;56471;53.508;49.252;2023-03-12T10:27:44;8.65;;;5.68;;
69325;SDS011;56471;53.508;49.252;2023-03-12T10:30:15;8.32;;;5.97;;
69325;SDS011;56471;53.508;49.252;2023-03-12T10:32:57;10.15;;;6.20;;
69325;SDS011;56471;53.508;49.252;2023-03-12T10:35:28;11.05;;;6.43;;
69325;SDS011;56471;53.508;49.252;2023-03-12T10:38:03;7.95;;;5.72;;
69325;SDS011;56471;53.508;49.252;2023-03-12T10:40:35;9.90;;;6.53;;
69325;SDS011;56471;53.508;49.252;2023-03-12T10:43:03;8.23;;;5.82;;
69325;SDS011;56471;53.508;49.252;2023-03-12T10:51:01;8.75;;;5.50;;
69325;SDS011;56471;53.508;49.252;2023-03-12T10:53:36;9.65;;;5.80;;
69325;SDS011;56471;53.508;49.252;2023-03-12T10:56:12;10.35;;;6.20;;
69325;SDS011;56471;53.508;49.252;2023-03-12T10:58:40;10.15;;;5.72;;
69325;SDS011;56471;53.508;49.252;2023-03-12T11:03:40;8.40;;;5.72;;
69325;SDS011;56471;53.508;49.252;2023-03-12T11:06:07;8.82;;;5.60;;
69325;SDS011;56471;53.508;49.252;2023-03-12T11:11:05;11.15;;;5.50;;
69325;SDS011;56471;53.508;49.252;2023-03-12T11:13:40;645.05;;;414.77;;
69325;SDS011;56471;53.508;49.252;2023-03-12T11:18:44;970.00;;;648.50;;
69325;SDS011;56471;53.508;49.252;2023-03-12T11:21:29;843.50;;;569.53;;
69325;SDS011;56471;53.508;49.252;2023-03-12T11:24:09;724.42;;;485.95;;
69325;SDS011;56471;53.508;49.252;2023-03-12T11:34:59;457.05;;;282.20;;
69325;SDS011;56471;53.508;49.252;2023-03-12T11:37:41;408.55;;;245.35;;
69325;SDS011;56471;53.508;49.252;2023-03-12T11:44:18;308.27;;;164.85;;
69325;SDS011;56471;53.508;49.252;2023-03-12T11:46:31;269.70;;;141.48;;
69325;SDS011;56471;53.508;49.252;2023-03-12T11:52:04;205.05;;;108.95;;
69325;SDS011;56471;53.508;49.252;2023-03-12T12:16:22;641.78;;;457.17;;
69325;SDS011;56471;53.508;49.252;2023-03-12T12:18:54;573.43;;;397.67;;
69325;SDS011;56471;53.508;49.252;2023-03-12T12:21:46;481.65;;;319.95;;
69325;SDS011;56471;53.508;49.252;2023-03-12T12:27:19;363.08;;;222.80;;
69325;SDS011;56471;53.508;49.252;2023-03-12T12:30:06;310.92;;;182.50;;
69325;SDS011;56471;53.508;49.252;2023-03-12T12:35:28;204.10;;;116.70;;
69325;SDS011;56471;53.508;49.252;2023-03-12T12:38:13;167.95;;;95.25;;
69325;SDS011;56471;53.508;49.252;2023-03-12T12:40:55;136.95;;;78.20;;
69325;SDS011;56471;53.508;49.252;2023-03-12T12:43:29;122.85;;;65.30;;
69325;SDS011;56471;53.508;49.252;2023-03-12T12:46:03;100.72;;;52.22;;
69325;SDS011;56471;53.508;49.252;2023-03-12T12:51:31;79.35;;;38.35;;
69325;SDS011;56471;53.508;49.252;2023-03-12T12:56:51;49.47;;;25.55;;
69325;SDS011;56471;53.508;49.252;2023-03-12T13:02:15;34.63;;;18.50;;
69325;SDS011;56471;53.508;49.252;2023-03-12T13:04:50;33.03;;;16.73;;
69325;SDS011;56471;53.508;49.252;2023-03-12T13:09:57;25.02;;;13.50;;
69325;SDS011;56471;53.508;49.252;2023-03-12T13:12:30;19.20;;;11.07;;
69325;SDS011;56471;53.508;49.252;2023-03-12T13:14:59;17.63;;;10.30;;
69325;SDS011;56471;53.508;49.252;2023-03-12T13:19:59;13.45;;;8.00;;
69325;SDS011;56471;53.508;49.252;2023-03-12T13:22:49;14.23;;;8.20;;
69325;SDS011;56471;53.508;49.252;2023-03-12T13:33:46;568.60;;;362.17;;
69325;SDS011;56471;53.508;49.252;2023-03-12T13:36:21;504.33;;;316.98;;
69325;SDS011;56471;53.508;49.252;2023-03-12T16:33:53;6.10;;;2.47;;
69325;SDS011;56471;53.508;49.252;2023-03-12T16:36:22;3.95;;;2.15;;
69325;SDS011;56471;53.508;49.252;2023-03-12T16:38:59;3.83;;;2.05;;
69325;SDS011;56471;53.508;49.252;2023-03-12T16:41:28;3.30;;;1.98;;
69325;SDS011;56471;53.508;49.252;2023-03-12T16:43:56;3.65;;;1.90;;
69325;SDS011;56471;53.508;49.252;2023-03-12T16:46:23;2.85;;;1.73;;
69325;SDS011;56471;53.508;49.252;2023-03-12T16:48:52;2.33;;;1.73;;
69325;SDS011;56471;53.508;49.252;2023-03-12T16:51:19;2.78;;;1.98;;
69325;SDS011;56471;53.508;49.252;2023-03-12T16:53:45;2.15;;;1.60;;
69325;SDS011;56471;53.508;49.252;2023-03-12T16:56:15;2.42;;;1.80;;
69325;SDS011;56471;53.508;49.252;2023-03-12T16:58:48;3.28;;;1.65;;
69325;SDS011;56471;53.508;49.252;2023-03-12T17:01:15;3.80;;;2.58;;
69325;SDS011;56471;53.508;49.252;2023-03-12T17:03:44;5.97;;;3.50;;
69325;SDS011;56471;53.508;49.252;2023-03-12T17:09:21;579.47;;;353.73;;
69325;SDS011;56471;53.508;49.252;2023-03-12T17:11:47;487.90;;;295.50;;
69325;SDS011;56471;53.508;49.252;2023-03-12T17:14:16;401.88;;;226.30;;
69325;SDS011;56471;53.508;49.252;2023-03-12T17:16:45;331.73;;;167.23;;
69325;SDS011;56471;53.508;49.252;2023-03-12T17:19:12;260.10;;;132.02;;
69325;SDS011;56471;53.508;49.252;2023-03-12T17:21:38;198.88;;;102.18;;
69325;SDS011;56471;53.508;49.252;2023-03-12T17:24:04;154.98;;;78.60;;
69325;SDS011;56471;53.508;49.252;2023-03-12T17:26:30;127.80;;;62.20;;
69325;SDS011;56471;53.508;49.252;2023-03-12T17:28:56;104.90;;;48.67;;
69325;SDS011;56471;53.508;49.252;2023-03-12T17:31:22;86.55;;;39.92;;
69325;SDS011;56471;53.508;49.252;2023-03-12T17:33:48;69.32;;;30.35;;
69325;SDS011;56471;53.508;49.252;2023-03-12T17:36:14;53.33;;;23.95;;
69325;SDS011;56471;53.508;49.252;2023-03-12T17:38:40;43.15;;;19.10;;
69325;SDS011;56471;53.508;49.252;2023-03-12T17:41:06;31.25;;;15.27;;
69325;SDS011;56471;53.508;49.252;2023-03-12T17:43:32;28.27;;;12.30;;
69325;SDS011;56471;53.508;49.252;2023-03-12T17:46:04;20.63;;;9.57;;
69325;SDS011;56471;53.508;49.252;2023-03-12T17:48:35;16.33;;;7.95;;
69325;SDS011;56471;53.508;49.252;2023-03-12T17:51:08;12.55;;;6.38;;
69325;SDS011;56471;53.508;49.252;2023-03-12T17:53:34;9.00;;;5.20;;
69325;SDS011;56471;53.508;49.252;2023-03-12T17:56:00;8.65;;;4.57;;
69325;SDS011;56471;53.508;49.252;2023-03-12T17:58:26;8.30;;;3.78;;
69325;SDS011;56471;53.508;49.252;2023-03-12T18:00:52;7.05;;;3.90;;
69325;SDS011;56471;53.508;49.252;2023-03-12T18:03:18;4.63;;;2.58;;
69325;SDS011;56471;53.508;49.252;2023-03-12T18:05:43;5.82;;;2.63;;
69325;SDS011;56471;53.508;49.252;2023-03-12T18:08:09;4.85;;;2.30;;
69325;SDS011;56471;53.508;49.252;2023-03-12T18:10:38;4.97;;;2.28;;
69325;SDS011;56471;53.508;49.252;2023-03-12T18:13:04;2.45;;;1.70;;
69325;SDS011;56471;53.508;49.252;2023-03-12T18:15:30;3.20;;;1.85;;
69325;SDS011;56471;53.508;49.252;2023-03-12T18:17:56;5.18;;;1.80;;
69325;SDS011;56471;53.508;49.252;2023-03-12T18:20:22;3.20;;;1.50;;
69325;SDS011;56471;53.508;49.252;2023-03-12T18:22:48;2.22;;;1.42;;
69325;SDS011;56471;53.508;49.252;2023-03-12T18:25:14;3.35;;;1.50;;
69325;SDS011;56471;53.508;49.252;2023-03-12T18:27:40;3.25;;;2.03;;
69325;SDS011;56471;53.508;49.252;2023-03-12T18:30:06;703.10;;;483.95;;
69325;SDS011;56471;53.508;49.252;2023-03-12T18:32:36;516.33;;;315.58;;
69325;SDS011;56471;53.508;49.252;2023-03-12T18:35:03;428.05;;;255.07;;
69325;SDS011;56471;53.508;49.252;2023-03-12T18:37:29;354.90;;;192.00;;
69325;SDS011;56471;53.508;49.252;2023-03-12T18:39:56;276.92;;;143.15;;
69325;SDS011;56471;53.508;49.252;2023-03-12T18:42:21;225.70;;;117.47;;
69325;SDS011;56471;53.508;49.252;2023-03-12T18:44:50;165.20;;;87.60;;
69325;SDS011;56471;53.508;49.252;2023-03-12T18:47:16;133.25;;;67.15;;
69325;SDS011;56471;53.508;49.252;2023-03-12T18:49:42;113.20;;;55.17;;
69325;SDS011;56471;53.508;49.252;2023-03-12T18:52:08;95.07;;;43.40;;
69325;SDS011;56471;53.508;49.252;2023-03-12T18:54:39;82.43;;;34.40;;
69325;SDS011;56471;53.508;49.252;2023-03-12T18:57:05;56.92;;;26.10;;
69325;SDS011;56471;53.508;49.252;2023-03-12T18:59:31;49.50;;;20.95;;
69325;SDS011;56471;53.508;49.252;2023-03-12T19:01:57;37.65;;;16.83;;
69325;SDS011;56471;53.508;49.252;2023-03-12T19:04:22;28.10;;;13.05;;
69325;SDS011;56471;53.508;49.252;2023-03-12T19:06:49;24.70;;;11.10;;
69325;SDS011;56471;53.508;49.252;2023-03-12T19:09:18;19.77;;;8.88;;
69325;SDS011;56471;53.508;49.252;2023-03-12T19:11:45;13.57;;;6.55;;
69325;SDS011;56471;53.508;49.252;2023-03-12T19:14:13;12.68;;;5.95;;